sensor_id;sensor_type;location;lat;lon;timestamp;pressure;altitude;pressure_sealevel;temperature;humidity
84878;BME280;75140;47.754;8.840;2023-12-22T11:34:54;95971.34;;;24.20;54.06
84878;BME280;75140;47.754;8.840;2023-12-22T11:37:21;95972.97;;;24.21;53.75
84878;BME280;75140;47.754;8.840;2023-12-22T11:39:47;95957.84;;;24.15;54.12
84878;BME280;75140;47.754;8.840;2023-12-22T11:42:21;95960.59;;;24.10;54.17
84878;BME280;75140;47.754;8.840;2023-12-22T11:44:48;95950.63;;;24.05;53.75
84878;BME280;75140;47.754;8.840;2023-12-22T11:47:14;95946.81;;;24.06;53.86
84878;BME280;75140;47.754;8.840;2023-12-22T11:49:40;95942.47;;;24.05;54.79
84878;BME280;75140;47.754;8.840;2023-12-22T11:52:14;95940.78;;;24.09;53.31
84878;BME280;75140;47.754;8.840;2023-12-22T12:10:01;95962.19;;;8.64;79.56
84878;BME280;75140;47.754;8.840;2023-12-22T12:12:27;95955.72;;;8.45;80.99
84878;BME280;75140;47.754;8.840;2023-12-22T12:14:56;95952.56;;;8.35;82.46
84878;BME280;75140;47.754;8.840;2023-12-22T12:17:23;95963.72;;;8.30;82.01
84878;BME280;75140;47.754;8.840;2023-12-22T12:19:49;95950.06;;;8.27;83.28
84878;BME280;75140;47.754;8.840;2023-12-22T12:22:16;95949.06;;;8.13;84.73
84878;BME280;75140;47.754;8.840;2023-12-22T12:24:42;95941.06;;;8.07;86.12
84878;BME280;75140;47.754;8.840;2023-12-22T12:27:08;95940.97;;;8.00;86.41
84878;BME280;75140;47.754;8.840;2023-12-22T12:29:33;95941.75;;;7.94;87.42
84878;BME280;75140;47.754;8.840;2023-12-22T12:32:05;95941.28;;;7.91;88.24
84878;BME280;75140;47.754;8.840;2023-12-22T12:34:31;95931.09;;;7.88;88.67
84878;BME280;75140;47.754;8.840;2023-12-22T12:36:56;95946.63;;;7.76;90.34
84878;BME280;75140;47.754;8.840;2023-12-22T12:39:22;95945.59;;;7.77;89.67
84878;BME280;75140;47.754;8.840;2023-12-22T12:41:54;95940.88;;;7.73;91.91
84878;BME280;75140;47.754;8.840;2023-12-22T12:44:22;95944.50;;;7.72;91.33
84878;BME280;75140;47.754;8.840;2023-12-22T12:46:48;95935.69;;;7.65;92.49
84878;BME280;75140;47.754;8.840;2023-12-22T12:49:13;95935.78;;;7.57;91.76
84878;BME280;75140;47.754;8.840;2023-12-22T12:51:43;95941.72;;;7.59;91.48
84878;BME280;75140;47.754;8.840;2023-12-22T12:54:10;95925.53;;;7.47;92.10
84878;BME280;75140;47.754;8.840;2023-12-22T12:56:45;95930.25;;;7.52;91.84
84878;BME280;75140;47.754;8.840;2023-12-22T12:59:13;95927.16;;;7.48;92.23
84878;BME280;75140;47.754;8.840;2023-12-22T13:01:41;95927.78;;;7.50;91.99
84878;BME280;75140;47.754;8.840;2023-12-22T13:04:07;95920.84;;;7.49;92.69
84878;BME280;75140;47.754;8.840;2023-12-22T13:06:32;95921.88;;;7.48;93.00
84878;BME280;75140;47.754;8.840;2023-12-22T13:08:58;95917.50;;;7.55;92.26
84878;BME280;75140;47.754;8.840;2023-12-22T13:11:26;95915.03;;;7.54;90.89
84878;BME280;75140;47.754;8.840;2023-12-22T13:13:53;95923.78;;;7.54;92.01
84878;BME280;75140;47.754;8.840;2023-12-22T13:16:22;95922.59;;;7.57;91.60
84878;BME280;75140;47.754;8.840;2023-12-22T13:18:52;95930.78;;;7.62;91.75
84878;BME280;75140;47.754;8.840;2023-12-22T13:21:17;95920.47;;;7.67;91.16
84878;BME280;75140;47.754;8.840;2023-12-22T13:23:43;95925.38;;;7.70;92.14
84878;BME280;75140;47.754;8.840;2023-12-22T13:26:21;95920.00;;;7.78;91.84
84878;BME280;75140;47.754;8.840;2023-12-22T13:28:46;95918.88;;;7.87;91.47
84878;BME280;75140;47.754;8.840;2023-12-22T13:31:15;95919.38;;;7.97;91.42
84878;BME280;75140;47.754;8.840;2023-12-22T13:33:43;95926.19;;;8.06;91.66
84878;BME280;75140;47.754;8.840;2023-12-22T13:36:09;95918.34;;;8.12;91.30
84878;BME280;75140;47.754;8.840;2023-12-22T13:38:35;95926.06;;;8.14;91.83
84878;BME280;75140;47.754;8.840;2023-12-22T13:41:04;95915.25;;;8.23;90.25
84878;BME280;75140;47.754;8.840;2023-12-22T13:43:32;95923.69;;;8.19;91.04
84878;BME280;75140;47.754;8.840;2023-12-22T13:45:57;95916.38;;;8.21;90.92
84878;BME280;75140;47.754;8.840;2023-12-22T13:48:23;95924.84;;;8.31;89.72
84878;BME280;75140;47.754;8.840;2023-12-22T13:50:59;95927.16;;;8.34;90.10
84878;BME280;75140;47.754;8.840;2023-12-22T13:53:25;95916.75;;;8.32;90.74
84878;BME280;75140;47.754;8.840;2023-12-22T13:55:58;95906.00;;;8.34;90.24
84878;BME280;75140;47.754;8.840;2023-12-22T13:58:24;95913.09;;;8.33;90.67
84878;BME280;75140;47.754;8.840;2023-12-22T14:00:50;95907.81;;;8.33;90.46
84878;BME280;75140;47.754;8.840;2023-12-22T14:03:16;95908.00;;;8.32;90.98
84878;BME280;75140;47.754;8.840;2023-12-22T14:05:42;95917.16;;;8.36;90.65
84878;BME280;75140;47.754;8.840;2023-12-22T14:08:08;95918.44;;;8.40;90.38
84878;BME280;75140;47.754;8.840;2023-12-22T14:10:33;95925.78;;;8.44;89.73
84878;BME280;75140;47.754;8.840;2023-12-22T14:12:58;95941.06;;;8.42;90.59
84878;BME280;75140;47.754;8.840;2023-12-22T14:15:24;95941.06;;;8.42;90.00
84878;BME280;75140;47.754;8.840;2023-12-22T14:17:49;95949.84;;;8.49;89.37
84878;BME280;75140;47.754;8.840;2023-12-22T14:20:15;95945.56;;;8.48;89.95
84878;BME280;75140;47.754;8.840;2023-12-22T14:22:40;95955.28;;;8.41;90.48
84878;BME280;75140;47.754;8.840;2023-12-22T14:25:06;95956.94;;;8.42;89.94
84878;BME280;75140;47.754;8.840;2023-12-22T14:27:32;95946.84;;;8.53;88.88
84878;BME280;75140;47.754;8.840;2023-12-22T14:29:57;95951.69;;;8.49;89.64
84878;BME280;75140;47.754;8.840;2023-12-22T14:32:23;95959.38;;;8.44;90.25
84878;BME280;75140;47.754;8.840;2023-12-22T14:34:48;95967.13;;;8.45;90.32
84878;BME280;75140;47.754;8.840;2023-12-22T14:37:14;95972.97;;;8.41;90.26
84878;BME280;75140;47.754;8.840;2023-12-22T14:39:41;95973.78;;;8.41;90.08
84878;BME280;75140;47.754;8.840;2023-12-22T14:42:07;95968.44;;;8.35;90.87
84878;BME280;75140;47.754;8.840;2023-12-22T14:44:32;95963.34;;;8.33;91.41
84878;BME280;75140;47.754;8.840;2023-12-22T14:46:58;95953.19;;;8.37;90.13
84878;BME280;75140;47.754;8.840;2023-12-22T14:49:23;95973.47;;;8.30;91.45
84878;BME280;75140;47.754;8.840;2023-12-22T14:51:49;95968.19;;;8.30;91.21
84878;BME280;75140;47.754;8.840;2023-12-22T14:54:19;95978.75;;;8.30;91.28
84878;BME280;75140;47.754;8.840;2023-12-22T14:56:46;95972.28;;;8.32;91.29
84878;BME280;75140;47.754;8.840;2023-12-22T14:59:11;95971.66;;;8.30;91.93
84878;BME280;75140;47.754;8.840;2023-12-22T15:01:37;95974.50;;;8.29;92.07
84878;BME280;75140;47.754;8.840;2023-12-22T15:04:04;95974.66;;;8.27;91.70
84878;BME280;75140;47.754;8.840;2023-12-22T15:06:31;95971.28;;;8.33;91.49
84878;BME280;75140;47.754;8.840;2023-12-22T15:08:57;95977.75;;;8.31;91.33
84878;BME280;75140;47.754;8.840;2023-12-22T15:11:24;95973.78;;;8.41;90.66
84878;BME280;75140;47.754;8.840;2023-12-22T15:13:50;95987.66;;;8.43;90.61
84878;BME280;75140;47.754;8.840;2023-12-22T15:16:16;95991.13;;;8.44;89.99
84878;BME280;75140;47.754;8.840;2023-12-22T15:18:42;95998.91;;;8.52;90.19
84878;BME280;75140;47.754;8.840;2023-12-22T15:21:07;95979.03;;;8.56;89.62
84878;BME280;75140;47.754;8.840;2023-12-22T15:23:33;95997.75;;;8.55;89.90
84878;BME280;75140;47.754;8.840;2023-12-22T15:25:59;96011.88;;;8.47;90.67
84878;BME280;75140;47.754;8.840;2023-12-22T15:28:24;95990.41;;;8.57;89.65
84878;BME280;75140;47.754;8.840;2023-12-22T15:30:50;95983.69;;;8.54;89.87
84878;BME280;75140;47.754;8.840;2023-12-22T15:33:16;95996.03;;;8.47;91.12
84878;BME280;75140;47.754;8.840;2023-12-22T15:35:41;95999.16;;;8.57;89.67
84878;BME280;75140;47.754;8.840;2023-12-22T15:38:06;96006.72;;;8.60;89.55
84878;BME280;75140;47.754;8.840;2023-12-22T15:40:33;95997.34;;;8.58;89.59
84878;BME280;75140;47.754;8.840;2023-12-22T15:42:58;96003.81;;;8.55;90.35
84878;BME280;75140;47.754;8.840;2023-12-22T15:45:24;95997.59;;;8.63;89.66
84878;BME280;75140;47.754;8.840;2023-12-22T15:47:50;96019.03;;;8.68;89.33
84878;BME280;75140;47.754;8.840;2023-12-22T15:50:15;96031.66;;;8.72;88.89
84878;BME280;75140;47.754;8.840;2023-12-22T15:52:41;96013.28;;;8.64;89.85
84878;BME280;75140;47.754;8.840;2023-12-22T15:55:07;96007.59;;;8.67;89.09
84878;BME280;75140;47.754;8.840;2023-12-22T15:57:34;96016.19;;;8.69;88.69
84878;BME280;75140;47.754;8.840;2023-12-22T15:59:59;96013.53;;;8.69;88.73
84878;BME280;75140;47.754;8.840;2023-12-22T16:02:25;96029.53;;;8.61;89.62
84878;BME280;75140;47.754;8.840;2023-12-22T16:04:50;96039.09;;;8.62;90.08
84878;BME280;75140;47.754;8.840;2023-12-22T16:07:15;96053.09;;;8.56;91.24
84878;BME280;75140;47.754;8.840;2023-12-22T16:09:41;96040.47;;;8.58;90.33
84878;BME280;75140;47.754;8.840;2023-12-22T16:12:06;96028.91;;;8.59;90.21
84878;BME280;75140;47.754;8.840;2023-12-22T16:14:35;96054.66;;;8.51;91.15
84878;BME280;75140;47.754;8.840;2023-12-22T16:17:00;96046.09;;;8.48;91.14
84878;BME280;75140;47.754;8.840;2023-12-22T16:19:26;96053.31;;;8.40;92.33
84878;BME280;75140;47.754;8.840;2023-12-22T16:21:52;96047.66;;;8.43;91.24
84878;BME280;75140;47.754;8.840;2023-12-22T16:24:18;96047.34;;;8.53;90.08
84878;BME280;75140;47.754;8.840;2023-12-22T16:26:44;96043.69;;;8.54;90.54
84878;BME280;75140;47.754;8.840;2023-12-22T16:29:09;96045.25;;;8.48;90.53
84878;BME280;75140;47.754;8.840;2023-12-22T16:31:38;96050.53;;;8.48;90.32
84878;BME280;75140;47.754;8.840;2023-12-22T16:34:03;96053.28;;;8.55;90.06
84878;BME280;75140;47.754;8.840;2023-12-22T16:36:29;96057.75;;;8.54;90.82
84878;BME280;75140;47.754;8.840;2023-12-22T16:38:54;96046.91;;;8.49;90.50
84878;BME280;75140;47.754;8.840;2023-12-22T16:41:19;96045.34;;;8.55;89.98
84878;BME280;75140;47.754;8.840;2023-12-22T16:43:45;96046.78;;;8.57;89.94
84878;BME280;75140;47.754;8.840;2023-12-22T16:46:11;96062.41;;;8.52;90.62
84878;BME280;75140;47.754;8.840;2023-12-22T16:48:37;96067.44;;;8.47;90.98
84878;BME280;75140;47.754;8.840;2023-12-22T16:51:03;96066.06;;;8.51;90.94
84878;BME280;75140;47.754;8.840;2023-12-22T16:53:28;96059.19;;;8.57;90.07
84878;BME280;75140;47.754;8.840;2023-12-22T16:55:54;96068.59;;;8.59;90.05
84878;BME280;75140;47.754;8.840;2023-12-22T16:58:19;96071.50;;;8.64;89.99
84878;BME280;75140;47.754;8.840;2023-12-22T17:00:44;96078.34;;;8.59;90.09
84878;BME280;75140;47.754;8.840;2023-12-22T17:03:10;96078.53;;;8.57;90.33
84878;BME280;75140;47.754;8.840;2023-12-22T17:05:35;96076.53;;;8.59;89.94
84878;BME280;75140;47.754;8.840;2023-12-22T17:08:01;96072.22;;;8.58;89.81
84878;BME280;75140;47.754;8.840;2023-12-22T17:10:26;96076.00;;;8.70;88.43
84878;BME280;75140;47.754;8.840;2023-12-22T17:12:52;96083.69;;;8.65;88.68
84878;BME280;75140;47.754;8.840;2023-12-22T17:15:17;96094.47;;;8.64;88.86
84878;BME280;75140;47.754;8.840;2023-12-22T17:17:43;96093.56;;;8.57;89.54
84878;BME280;75140;47.754;8.840;2023-12-22T17:20:08;96097.44;;;8.54;89.57
84878;BME280;75140;47.754;8.840;2023-12-22T17:22:34;96104.53;;;8.54;90.01
84878;BME280;75140;47.754;8.840;2023-12-22T17:25:00;96115.75;;;8.56;90.39
84878;BME280;75140;47.754;8.840;2023-12-22T17:27:25;96114.28;;;8.53;90.79
84878;BME280;75140;47.754;8.840;2023-12-22T17:29:50;96117.75;;;8.54;90.42
84878;BME280;75140;47.754;8.840;2023-12-22T17:32:18;96118.53;;;8.48;91.58
84878;BME280;75140;47.754;8.840;2023-12-22T17:34:44;96119.88;;;8.43;91.93
84878;BME280;75140;47.754;8.840;2023-12-22T17:37:09;96115.41;;;8.44;91.54
84878;BME280;75140;47.754;8.840;2023-12-22T17:39:35;96117.44;;;8.42;92.45
84878;BME280;75140;47.754;8.840;2023-12-22T17:42:01;96111.50;;;8.40;92.22
84878;BME280;75140;47.754;8.840;2023-12-22T17:44:26;96108.97;;;8.32;93.23
84878;BME280;75140;47.754;8.840;2023-12-22T17:46:52;96106.31;;;8.32;93.27
84878;BME280;75140;47.754;8.840;2023-12-22T17:49:17;96100.66;;;8.35;92.92
84878;BME280;75140;47.754;8.840;2023-12-22T17:51:43;96103.28;;;8.35;92.76
84878;BME280;75140;47.754;8.840;2023-12-22T17:54:08;96109.88;;;8.39;92.19
84878;BME280;75140;47.754;8.840;2023-12-22T17:56:34;96106.66;;;8.43;91.68
84878;BME280;75140;47.754;8.840;2023-12-22T17:59:00;96114.78;;;8.42;92.03
84878;BME280;75140;47.754;8.840;2023-12-22T18:01:25;96129.19;;;8.39;91.67
84878;BME280;75140;47.754;8.840;2023-12-22T18:03:51;96134.66;;;8.38;92.42
84878;BME280;75140;47.754;8.840;2023-12-22T18:06:20;96148.53;;;8.40;92.67
84878;BME280;75140;47.754;8.840;2023-12-22T18:08:49;96154.44;;;8.42;91.82
84878;BME280;75140;47.754;8.840;2023-12-22T18:11:15;96145.88;;;8.40;92.59
84878;BME280;75140;47.754;8.840;2023-12-22T18:13:40;96140.41;;;8.41;92.08
84878;BME280;75140;47.754;8.840;2023-12-22T18:16:05;96155.81;;;8.38;92.49
84878;BME280;75140;47.754;8.840;2023-12-22T18:18:31;96155.81;;;8.38;92.87
84878;BME280;75140;47.754;8.840;2023-12-22T18:20:58;96152.00;;;8.40;91.98
84878;BME280;75140;47.754;8.840;2023-12-22T18:23:23;96156.25;;;8.41;92.03
84878;BME280;75140;47.754;8.840;2023-12-22T18:25:48;96171.34;;;8.41;91.75
84878;BME280;75140;47.754;8.840;2023-12-22T18:28:14;96153.09;;;8.46;91.41
84878;BME280;75140;47.754;8.840;2023-12-22T18:30:39;96162.38;;;8.42;91.58
84878;BME280;75140;47.754;8.840;2023-12-22T18:33:05;96183.09;;;8.38;91.51
84878;BME280;75140;47.754;8.840;2023-12-22T18:35:31;96186.91;;;8.36;91.37
84878;BME280;75140;47.754;8.840;2023-12-22T18:37:56;96178.69;;;8.31;91.96
84878;BME280;75140;47.754;8.840;2023-12-22T18:40:21;96176.13;;;8.23;92.64
84878;BME280;75140;47.754;8.840;2023-12-22T18:42:47;96178.13;;;8.21;92.60
84878;BME280;75140;47.754;8.840;2023-12-22T18:45:12;96181.06;;;8.26;91.90
84878;BME280;75140;47.754;8.840;2023-12-22T18:47:38;96186.69;;;8.23;92.52
84878;BME280;75140;47.754;8.840;2023-12-22T18:50:03;96205.00;;;8.32;91.18
84878;BME280;75140;47.754;8.840;2023-12-22T18:52:29;96210.63;;;8.29;91.45
84878;BME280;75140;47.754;8.840;2023-12-22T18:54:54;96208.81;;;8.30;91.27
84878;BME280;75140;47.754;8.840;2023-12-22T18:57:20;96207.00;;;8.30;91.60
84878;BME280;75140;47.754;8.840;2023-12-22T18:59:45;96197.56;;;8.28;91.33
84878;BME280;75140;47.754;8.840;2023-12-22T19:02:11;96227.88;;;8.25;91.34
84878;BME280;75140;47.754;8.840;2023-12-22T19:04:37;96228.06;;;8.24;91.44
84878;BME280;75140;47.754;8.840;2023-12-22T19:07:03;96231.31;;;8.26;91.47
84878;BME280;75140;47.754;8.840;2023-12-22T19:09:28;96235.25;;;8.30;91.10
84878;BME280;75140;47.754;8.840;2023-12-22T19:11:54;96237.94;;;8.22;91.90
84878;BME280;75140;47.754;8.840;2023-12-22T19:14:19;96236.94;;;8.23;91.56
84878;BME280;75140;47.754;8.840;2023-12-22T19:16:44;96240.25;;;8.25;91.26
84878;BME280;75140;47.754;8.840;2023-12-22T19:19:09;96244.88;;;8.23;91.43
84878;BME280;75140;47.754;8.840;2023-12-22T19:21:35;96244.13;;;8.14;91.87
84878;BME280;75140;47.754;8.840;2023-12-22T19:24:01;96255.34;;;8.16;91.27
84878;BME280;75140;47.754;8.840;2023-12-22T19:26:26;96255.16;;;8.18;90.99
84878;BME280;75140;47.754;8.840;2023-12-22T19:28:52;96261.66;;;8.15;91.93
84878;BME280;75140;47.754;8.840;2023-12-22T19:31:17;96257.91;;;8.10;92.32
84878;BME280;75140;47.754;8.840;2023-12-22T19:33:42;96266.19;;;8.07;92.34
84878;BME280;75140;47.754;8.840;2023-12-22T19:36:08;96275.28;;;8.04;92.69
84878;BME280;75140;47.754;8.840;2023-12-22T19:38:36;96274.13;;;8.07;92.14
84878;BME280;75140;47.754;8.840;2023-12-22T19:41:01;96252.50;;;8.03;92.22
84878;BME280;75140;47.754;8.840;2023-12-22T19:43:27;96256.13;;;8.02;92.46
84878;BME280;75140;47.754;8.840;2023-12-22T19:45:53;96259.97;;;8.00;92.49
84878;BME280;75140;47.754;8.840;2023-12-22T19:48:19;96272.34;;;7.99;92.73
84878;BME280;75140;47.754;8.840;2023-12-22T19:50:45;96275.00;;;7.99;92.64
84878;BME280;75140;47.754;8.840;2023-12-22T19:53:10;96292.66;;;7.99;92.60
84878;BME280;75140;47.754;8.840;2023-12-22T19:55:36;96283.94;;;7.98;92.69
84878;BME280;75140;47.754;8.840;2023-12-22T19:58:02;96287.19;;;8.00;92.44
84878;BME280;75140;47.754;8.840;2023-12-22T20:00:28;96305.69;;;8.00;92.28
84878;BME280;75140;47.754;8.840;2023-12-22T20:02:53;96294.06;;;8.09;91.00
84878;BME280;75140;47.754;8.840;2023-12-22T20:05:19;96293.59;;;8.06;90.95
84878;BME280;75140;47.754;8.840;2023-12-22T20:07:45;96292.94;;;8.04;91.42
84878;BME280;75140;47.754;8.840;2023-12-22T20:10:10;96299.25;;;8.03;91.31
84878;BME280;75140;47.754;8.840;2023-12-22T20:12:36;96307.19;;;8.03;91.38
84878;BME280;75140;47.754;8.840;2023-12-22T20:15:11;96309.09;;;8.09;89.95
84878;BME280;75140;47.754;8.840;2023-12-22T20:17:36;96313.59;;;8.08;89.95
84878;BME280;75140;47.754;8.840;2023-12-22T20:20:01;96337.19;;;8.10;90.13
84878;BME280;75140;47.754;8.840;2023-12-22T20:22:29;96327.78;;;8.07;89.70
84878;BME280;75140;47.754;8.840;2023-12-22T20:24:55;96313.31;;;8.03;90.43
84878;BME280;75140;47.754;8.840;2023-12-22T20:27:20;96310.75;;;8.10;89.03
84878;BME280;75140;47.754;8.840;2023-12-22T20:29:45;96316.28;;;8.00;90.59
84878;BME280;75140;47.754;8.840;2023-12-22T20:32:11;96325.31;;;8.06;89.55
84878;BME280;75140;47.754;8.840;2023-12-22T20:34:36;96340.19;;;8.07;88.53
84878;BME280;75140;47.754;8.840;2023-12-22T20:37:02;96337.56;;;8.07;88.68
84878;BME280;75140;47.754;8.840;2023-12-22T20:39:27;96344.72;;;7.98;89.80
84878;BME280;75140;47.754;8.840;2023-12-22T20:41:52;96342.41;;;7.95;89.90
84878;BME280;75140;47.754;8.840;2023-12-22T20:44:18;96329.19;;;7.95;89.67
84878;BME280;75140;47.754;8.840;2023-12-22T20:46:43;96327.94;;;7.91;89.87
84878;BME280;75140;47.754;8.840;2023-12-22T20:49:09;96324.75;;;7.96;88.76
84878;BME280;75140;47.754;8.840;2023-12-22T20:51:41;96332.38;;;7.91;89.35
84878;BME280;75140;47.754;8.840;2023-12-22T20:54:06;96341.78;;;7.93;89.04
84878;BME280;75140;47.754;8.840;2023-12-22T20:56:32;96333.88;;;7.93;88.57
84878;BME280;75140;47.754;8.840;2023-12-22T20:58:58;96348.25;;;7.91;89.13
84878;BME280;75140;47.754;8.840;2023-12-22T21:01:24;96335.03;;;7.91;89.24
84878;BME280;75140;47.754;8.840;2023-12-22T21:03:51;96336.34;;;7.87;89.38
84878;BME280;75140;47.754;8.840;2023-12-22T21:06:17;96339.94;;;7.94;88.24
84878;BME280;75140;47.754;8.840;2023-12-22T21:08:42;96358.81;;;7.91;88.45
84878;BME280;75140;47.754;8.840;2023-12-22T21:11:08;96358.16;;;7.89;88.35
84878;BME280;75140;47.754;8.840;2023-12-22T21:13:33;96351.06;;;7.89;88.50
84878;BME280;75140;47.754;8.840;2023-12-22T21:15:58;96349.25;;;7.90;88.36
84878;BME280;75140;47.754;8.840;2023-12-22T21:18:24;96358.34;;;7.87;88.56
84878;BME280;75140;47.754;8.840;2023-12-22T21:20:49;96365.78;;;7.84;88.30
84878;BME280;75140;47.754;8.840;2023-12-22T21:23:17;96362.66;;;7.80;89.08
84878;BME280;75140;47.754;8.840;2023-12-22T21:25:43;96371.59;;;7.79;89.51
84878;BME280;75140;47.754;8.840;2023-12-22T21:28:08;96379.66;;;7.86;88.65
84878;BME280;75140;47.754;8.840;2023-12-22T21:30:33;96374.06;;;7.81;88.83
84878;BME280;75140;47.754;8.840;2023-12-22T21:32:59;96368.91;;;7.87;87.99
84878;BME280;75140;47.754;8.840;2023-12-22T21:35:27;96371.06;;;7.84;88.44
84878;BME280;75140;47.754;8.840;2023-12-22T21:37:52;96379.19;;;7.82;88.01
84878;BME280;75140;47.754;8.840;2023-12-22T21:40:18;96382.41;;;7.92;87.12
84878;BME280;75140;47.754;8.840;2023-12-22T21:42:43;96394.69;;;7.85;88.02
84878;BME280;75140;47.754;8.840;2023-12-22T21:45:11;96383.25;;;7.93;86.78
84878;BME280;75140;47.754;8.840;2023-12-22T21:47:37;96401.75;;;7.93;86.68
84878;BME280;75140;47.754;8.840;2023-12-22T21:50:03;96403.63;;;7.84;87.23
84878;BME280;75140;47.754;8.840;2023-12-22T21:52:29;96408.25;;;7.82;88.13
84878;BME280;75140;47.754;8.840;2023-12-22T21:54:54;96409.56;;;7.86;88.14
84878;BME280;75140;47.754;8.840;2023-12-22T21:57:19;96421.16;;;7.77;88.54
84878;BME280;75140;47.754;8.840;2023-12-22T21:59:45;96412.22;;;7.78;88.50
84878;BME280;75140;47.754;8.840;2023-12-22T22:02:11;96410.47;;;7.71;91.25
84878;BME280;75140;47.754;8.840;2023-12-22T22:04:37;96431.59;;;7.71;90.63
84878;BME280;75140;47.754;8.840;2023-12-22T22:07:04;96422.66;;;7.72;88.31
84878;BME280;75140;47.754;8.840;2023-12-22T22:09:29;96429.13;;;7.69;87.94
84878;BME280;75140;47.754;8.840;2023-12-22T22:11:55;96428.34;;;7.61;89.53
84878;BME280;75140;47.754;8.840;2023-12-22T22:14:20;96428.22;;;7.54;89.28
84878;BME280;75140;47.754;8.840;2023-12-22T22:16:46;96441.56;;;7.53;90.37
84878;BME280;75140;47.754;8.840;2023-12-22T22:19:11;96432.84;;;7.52;89.74
84878;BME280;75140;47.754;8.840;2023-12-22T22:21:38;96436.94;;;7.55;89.81
84878;BME280;75140;47.754;8.840;2023-12-22T22:24:05;96455.78;;;7.52;90.25
84878;BME280;75140;47.754;8.840;2023-12-22T22:26:30;96449.50;;;7.53;89.64
84878;BME280;75140;47.754;8.840;2023-12-22T22:28:58;96444.56;;;7.50;89.99
84878;BME280;75140;47.754;8.840;2023-12-22T22:31:23;96435.97;;;7.48;90.69
84878;BME280;75140;47.754;8.840;2023-12-22T22:33:48;96447.72;;;7.45;90.70
84878;BME280;75140;47.754;8.840;2023-12-22T22:36:15;96452.53;;;7.42;90.61
84878;BME280;75140;47.754;8.840;2023-12-22T22:38:40;96450.72;;;7.42;90.92
84878;BME280;75140;47.754;8.840;2023-12-22T22:41:09;96450.53;;;7.44;90.42
84878;BME280;75140;47.754;8.840;2023-12-22T22:43:35;96459.59;;;7.41;89.95
84878;BME280;75140;47.754;8.840;2023-12-22T22:46:01;96447.22;;;7.42;90.28
84878;BME280;75140;47.754;8.840;2023-12-22T22:48:26;96456.13;;;7.41;90.25
84878;BME280;75140;47.754;8.840;2023-12-22T22:50:52;96458.47;;;7.36;90.95
84878;BME280;75140;47.754;8.840;2023-12-22T22:53:17;96441.25;;;7.48;89.76
84878;BME280;75140;47.754;8.840;2023-12-22T22:55:43;96451.38;;;7.36;90.68
84878;BME280;75140;47.754;8.840;2023-12-22T22:58:08;96451.53;;;7.35;90.18
84878;BME280;75140;47.754;8.840;2023-12-22T23:00:34;96475.13;;;7.36;90.52
84878;BME280;75140;47.754;8.840;2023-12-22T23:02:59;96478.56;;;7.45;89.38
84878;BME280;75140;47.754;8.840;2023-12-22T23:05:24;96494.09;;;7.40;89.33
84878;BME280;75140;47.754;8.840;2023-12-22T23:07:50;96489.50;;;7.42;89.32
84878;BME280;75140;47.754;8.840;2023-12-22T23:10:16;96480.91;;;7.40;89.58
84878;BME280;75140;47.754;8.840;2023-12-22T23:12:42;96492.47;;;7.39;89.91
84878;BME280;75140;47.754;8.840;2023-12-22T23:15:08;96485.53;;;7.38;89.48
84878;BME280;75140;47.754;8.840;2023-12-22T23:17:33;96484.72;;;7.37;89.33
84878;BME280;75140;47.754;8.840;2023-12-22T23:19:59;96480.25;;;7.38;88.41
84878;BME280;75140;47.754;8.840;2023-12-22T23:22:25;96469.84;;;7.36;88.89
84878;BME280;75140;47.754;8.840;2023-12-22T23:24:50;96465.06;;;7.40;88.23
84878;BME280;75140;47.754;8.840;2023-12-22T23:27:16;96473.50;;;7.35;89.53
84878;BME280;75140;47.754;8.840;2023-12-22T23:29:41;96471.66;;;7.36;88.59
84878;BME280;75140;47.754;8.840;2023-12-22T23:32:07;96493.09;;;7.41;87.91
84878;BME280;75140;47.754;8.840;2023-12-22T23:34:32;96459.28;;;7.36;88.59
84878;BME280;75140;47.754;8.840;2023-12-22T23:36:58;96473.81;;;7.40;87.70
84878;BME280;75140;47.754;8.840;2023-12-22T23:39:23;96499.72;;;7.37;89.08
84878;BME280;75140;47.754;8.840;2023-12-22T23:41:48;96490.00;;;7.37;89.63
84878;BME280;75140;47.754;8.840;2023-12-22T23:44:14;96481.06;;;7.38;89.53
84878;BME280;75140;47.754;8.840;2023-12-22T23:46:39;96490.50;;;7.32;88.28
84878;BME280;75140;47.754;8.840;2023-12-22T23:49:05;96487.38;;;7.29;89.28
84878;BME280;75140;47.754;8.840;2023-12-22T23:51:30;96499.75;;;7.28;89.38
84878;BME280;75140;47.754;8.840;2023-12-22T23:53:55;96491.19;;;7.26;89.67
84878;BME280;75140;47.754;8.840;2023-12-22T23:56:21;96501.56;;;7.28;88.91
84878;BME280;75140;47.754;8.840;2023-12-22T23:58:46;96489.50;;;7.25;89.65
